createdAt,value
2018-05-21T00:01:44.470Z,96.80
2018-05-21T00:04:11.992Z,96.60
2018-05-21T00:06:39.523Z,96.80
2018-05-21T00:09:07.809Z,97.40
2018-05-21T00:11:36.113Z,98.40
2018-05-21T00:14:03.619Z,98.40
2018-05-21T00:16:31.164Z,99.00
2018-05-21T00:18:58.686Z,99.30
2018-05-21T00:21:26.199Z,99.50
2018-05-21T00:23:53.736Z,99.90
2018-05-21T00:26:21.252Z,99.90
2018-05-21T00:28:48.785Z,99.90
2018-05-21T00:31:16.300Z,99.90
2018-05-21T00:33:43.839Z,99.90
2018-05-21T00:36:11.357Z,99.90
2018-05-21T00:38:38.888Z,99.90
2018-05-21T00:41:06.412Z,99.90
2018-05-21T00:43:33.958Z,99.90
2018-05-21T00:46:01.489Z,99.90
2018-05-21T00:48:29.025Z,99.90
2018-05-21T00:50:56.543Z,99.90
2018-05-21T00:53:24.840Z,99.90
2018-05-21T00:55:52.352Z,99.90
2018-05-21T00:58:19.878Z,99.90
2018-05-21T01:00:47.390Z,99.90
2018-05-21T01:03:15.687Z,99.90
2018-05-21T01:05:43.204Z,99.90
2018-05-21T01:08:10.744Z,99.90
2018-05-21T01:10:38.259Z,99.90
2018-05-21T01:13:06.565Z,99.90
2018-05-21T01:15:34.172Z,99.90
2018-05-21T01:18:02.401Z,99.90
2018-05-21T01:20:29.935Z,99.90
2018-05-21T01:22:58.215Z,99.90
2018-05-21T01:25:25.753Z,99.90
2018-05-21T01:27:53.268Z,99.90
2018-05-21T01:30:20.806Z,99.90
2018-05-21T01:32:48.333Z,99.90
2018-05-21T01:35:15.878Z,99.90
2018-05-21T01:37:43.386Z,99.90
2018-05-21T01:40:10.922Z,99.90
2018-05-21T01:42:39.204Z,99.90
2018-05-21T01:45:07.506Z,99.90
2018-05-21T01:47:35.021Z,99.90
2018-05-21T01:50:02.557Z,99.90
2018-05-21T01:52:30.836Z,99.90
2018-05-21T01:54:58.372Z,99.90
2018-05-21T01:57:25.883Z,99.90
2018-05-21T01:59:53.416Z,99.90
2018-05-21T02:02:20.929Z,99.90
2018-05-21T02:04:48.472Z,99.90
2018-05-21T02:09:50.610Z,99.90
2018-05-21T02:12:18.888Z,99.90
2018-05-21T02:14:46.400Z,99.90
2018-05-21T02:17:14.701Z,99.90
2018-05-21T02:19:42.216Z,99.90
2018-05-21T02:22:09.747Z,99.90
2018-05-21T02:24:37.269Z,99.90
2018-05-21T02:27:04.820Z,99.90
2018-05-21T02:29:32.398Z,99.90
2018-05-21T02:32:00.684Z,99.90
2018-05-21T02:34:28.205Z,99.90
2018-05-21T02:36:56.510Z,99.90
2018-05-21T02:39:24.023Z,99.90
2018-05-21T02:41:52.320Z,99.90
2018-05-21T02:44:20.612Z,99.90
2018-05-21T02:46:49.987Z,99.90
2018-05-21T02:49:17.666Z,99.90
2018-05-21T02:51:45.967Z,99.90
2018-05-21T02:54:13.484Z,99.90
2018-05-21T02:56:41.103Z,99.90
2018-05-21T02:59:08.635Z,99.90
2018-05-21T03:01:36.179Z,99.90
2018-05-21T03:04:04.484Z,99.90
2018-05-21T03:06:32.060Z,99.90
2018-05-21T03:08:59.597Z,99.90
2018-05-21T03:11:27.118Z,99.90
2018-05-21T03:13:54.739Z,99.90
2018-05-21T03:16:22.304Z,99.90
2018-05-21T03:18:49.835Z,99.90
2018-05-21T03:21:18.140Z,99.90
2018-05-21T03:23:45.673Z,99.90
2018-05-21T03:26:13.974Z,99.90
2018-05-21T03:28:41.509Z,99.90
2018-05-21T03:31:09.800Z,99.90
2018-05-21T03:33:37.341Z,99.90
2018-05-21T03:36:05.624Z,99.90
2018-05-21T03:38:33.933Z,99.90
2018-05-21T03:41:01.449Z,99.90
2018-05-21T03:43:29.768Z,99.90
2018-05-21T03:45:57.283Z,99.90
2018-05-21T03:50:58.690Z,99.90
2018-05-21T03:53:26.233Z,99.90
2018-05-21T03:55:53.819Z,99.90
2018-05-21T04:01:30.869Z,99.90
2018-05-21T04:03:58.406Z,99.90
2018-05-21T04:06:25.915Z,99.90
2018-05-21T04:08:53.451Z,99.90
2018-05-21T04:11:20.967Z,99.90
2018-05-21T04:13:48.502Z,99.90
2018-05-21T04:16:16.021Z,99.90
2018-05-21T04:18:43.583Z,99.90
2018-05-21T04:21:11.095Z,99.90
2018-05-21T04:23:38.613Z,99.90
2018-05-21T04:26:06.920Z,99.90
2018-05-21T04:28:34.440Z,99.90
2018-05-21T04:31:01.981Z,99.90
2018-05-21T04:33:29.496Z,99.90
2018-05-21T04:35:57.040Z,99.90
2018-05-21T04:38:25.323Z,99.90
2018-05-21T04:40:53.625Z,99.90
2018-05-21T04:43:21.139Z,99.90
2018-05-21T04:45:48.677Z,99.90
2018-05-21T04:48:16.200Z,99.90
2018-05-21T04:50:43.735Z,99.90
2018-05-21T04:53:12.037Z,99.90
2018-05-21T04:55:39.575Z,99.90
2018-05-21T04:58:07.862Z,99.90
2018-05-21T05:00:36.166Z,99.90
2018-05-21T05:03:03.684Z,99.90
2018-05-21T05:05:31.989Z,99.90
2018-05-21T05:07:59.516Z,99.90
2018-05-21T05:10:27.052Z,99.90
2018-05-21T05:12:54.572Z,98.00
2018-05-21T05:15:22.108Z,96.30
2018-05-21T05:17:50.388Z,92.40
2018-05-21T05:20:18.696Z,88.30
2018-05-21T05:22:46.218Z,88.30
2018-05-21T05:25:15.232Z,85.60
2018-05-21T05:27:47.665Z,77.90
2018-05-21T05:30:15.213Z,75.50
2018-05-21T05:32:42.728Z,73.10
2018-05-21T05:35:10.248Z,72.50
2018-05-21T05:37:37.780Z,71.80
2018-05-21T05:40:05.297Z,72.20
2018-05-21T05:42:32.846Z,70.50
2018-05-21T05:45:01.125Z,73.20
2018-05-21T05:47:29.423Z,73.60
2018-05-21T05:49:56.945Z,73.60
2018-05-21T05:52:24.480Z,70.60
2018-05-21T05:54:51.998Z,67.60
2018-05-21T05:57:19.541Z,70.00
2018-05-21T05:59:47.828Z,67.20
2018-05-21T06:02:16.133Z,72.20
2018-05-21T06:04:43.652Z,72.30
2018-05-21T06:07:11.188Z,68.80
2018-05-21T06:09:38.708Z,69.00
2018-05-21T06:12:06.256Z,69.40
2018-05-21T06:14:34.543Z,64.50
2018-05-21T06:17:02.077Z,64.50
2018-05-21T06:19:30.367Z,67.10
2018-05-21T06:21:58.677Z,69.40
2018-05-21T06:24:26.273Z,69.40
2018-05-21T06:26:53.783Z,67.80
2018-05-21T06:29:21.320Z,65.30
2018-05-21T06:31:49.604Z,66.00
2018-05-21T06:34:17.927Z,63.00
2018-05-21T06:36:45.445Z,62.80
2018-05-21T06:39:13.753Z,66.40
2018-05-21T06:41:41.273Z,66.40
2018-05-21T06:44:09.576Z,63.60
2018-05-21T06:46:37.103Z,63.60
2018-05-21T06:49:05.399Z,64.80
2018-05-21T06:51:33.681Z,65.70
2018-05-21T06:54:01.242Z,65.80
2018-05-21T06:56:28.765Z,66.60
2018-05-21T06:58:56.303Z,66.80
2018-05-21T07:01:23.824Z,66.00
2018-05-21T07:03:51.370Z,64.30
2018-05-21T07:06:19.656Z,66.20
2018-05-21T07:08:47.936Z,67.20
2018-05-21T07:11:15.473Z,67.20
2018-05-21T07:13:42.987Z,63.80
2018-05-21T07:16:10.528Z,64.70
2018-05-21T07:18:38.040Z,66.20
2018-05-21T07:21:05.567Z,65.00
2018-05-21T07:23:33.084Z,68.80
2018-05-21T07:26:01.391Z,64.50
2018-05-21T07:28:28.912Z,64.40
2018-05-21T07:30:57.213Z,66.70
2018-05-21T07:33:24.724Z,66.70
2018-05-21T07:35:52.267Z,66.80
2018-05-21T07:38:19.792Z,72.70
2018-05-21T07:40:47.331Z,62.30
2018-05-21T07:43:15.626Z,66.00
2018-05-21T07:45:43.927Z,68.60
2018-05-21T07:48:11.446Z,68.30
2018-05-21T07:50:39.748Z,67.00
2018-05-21T07:53:07.273Z,66.70
2018-05-21T07:55:34.813Z,64.60
2018-05-21T07:58:02.331Z,69.60
2018-05-21T08:00:29.881Z,68.60
2018-05-21T08:02:58.160Z,64.90
2018-05-21T08:05:26.461Z,65.50
2018-05-21T08:07:54.022Z,65.60
2018-05-21T08:10:21.585Z,67.70
2018-05-21T08:12:49.124Z,64.70
2018-05-21T08:15:16.639Z,63.10
2018-05-21T08:17:44.185Z,65.60
2018-05-21T08:20:11.718Z,67.10
2018-05-21T08:22:39.252Z,63.60
2018-05-21T08:25:07.536Z,60.20
2018-05-21T08:27:35.839Z,58.40
2018-05-21T08:30:03.365Z,58.50
2018-05-21T08:32:31.675Z,59.20
2018-05-21T08:34:59.193Z,59.10
2018-05-21T08:37:26.733Z,59.20
2018-05-21T08:39:54.252Z,59.90
2018-05-21T08:42:21.784Z,65.20
2018-05-21T08:44:50.068Z,59.40
2018-05-21T08:47:18.373Z,59.70
2018-05-21T08:49:45.901Z,59.60
2018-05-21T08:52:14.221Z,56.60
2018-05-21T08:54:41.741Z,56.50
2018-05-21T08:57:10.026Z,56.90
2018-05-21T08:59:37.565Z,56.70
2018-05-21T09:02:05.846Z,57.80
2018-05-21T09:04:34.152Z,57.50
2018-05-21T09:07:01.663Z,57.50
2018-05-21T09:09:29.204Z,54.80
2018-05-21T09:11:56.720Z,58.30
2018-05-21T09:14:24.254Z,55.60
2018-05-21T09:16:51.776Z,55.30
2018-05-21T09:19:19.321Z,56.00
2018-05-21T09:21:46.843Z,56.70
2018-05-21T09:24:15.147Z,59.40
2018-05-21T09:26:42.664Z,59.50
2018-05-21T09:29:10.198Z,58.40
2018-05-21T09:31:37.718Z,55.50
2018-05-21T09:34:05.253Z,57.60
2018-05-21T09:36:32.773Z,57.40
2018-05-21T09:39:00.319Z,57.30
2018-05-21T09:41:27.835Z,55.90
2018-05-21T09:43:56.116Z,59.80
2018-05-21T09:46:24.418Z,57.10
2018-05-21T09:48:51.941Z,57.00
2018-05-21T09:51:19.479Z,55.90
2018-05-21T09:53:46.991Z,56.50
2018-05-21T09:56:14.572Z,54.30
2018-05-21T09:58:42.134Z,56.00
2018-05-21T10:01:09.669Z,54.00
2018-05-21T10:03:37.952Z,57.30
2018-05-21T10:06:05.486Z,57.10
2018-05-21T10:08:33.015Z,53.30
2018-05-21T10:11:00.545Z,53.30
2018-05-21T10:13:28.059Z,52.90
2018-05-21T10:15:55.675Z,54.00
2018-05-21T10:18:23.196Z,55.60
2018-05-21T10:20:51.499Z,53.00
2018-05-21T10:23:19.071Z,52.80
2018-05-21T10:25:46.608Z,58.30
2018-05-21T10:28:14.888Z,51.00
2018-05-21T10:30:42.421Z,51.00
2018-05-21T10:33:09.936Z,52.80
2018-05-21T10:35:37.480Z,54.00
2018-05-21T10:38:04.991Z,54.40
2018-05-21T10:40:32.516Z,54.70
2018-05-21T10:43:00.052Z,55.40
2018-05-21T10:45:27.565Z,53.80
2018-05-21T10:47:55.099Z,56.20
2018-05-21T10:50:22.616Z,53.60
2018-05-21T10:52:50.924Z,53.50
2018-05-21T10:55:18.439Z,53.60
2018-05-21T10:57:46.757Z,52.40
2018-05-21T11:00:14.276Z,52.40
2018-05-21T11:02:42.591Z,53.10
2018-05-21T11:05:10.107Z,53.00
2018-05-21T11:07:37.791Z,53.40
2018-05-21T11:10:05.260Z,52.90
2018-05-21T11:12:32.802Z,51.60
2018-05-21T11:15:01.118Z,49.50
2018-05-21T11:17:28.665Z,49.50
2018-05-21T11:19:56.259Z,50.80
2018-05-21T11:22:23.795Z,51.50
2018-05-21T11:24:51.316Z,56.30
2018-05-21T11:27:18.928Z,52.30
2018-05-21T11:29:46.445Z,53.30
2018-05-21T11:32:14.765Z,51.50
2018-05-21T11:34:42.284Z,51.50
2018-05-21T11:37:09.884Z,50.90
2018-05-21T11:39:37.448Z,49.30
2018-05-21T11:42:04.989Z,47.50
2018-05-21T11:44:32.510Z,48.40
2018-05-21T11:47:00.849Z,51.60
2018-05-21T11:49:28.391Z,50.90
2018-05-21T11:51:55.907Z,51.80
2018-05-21T11:54:23.529Z,53.90
2018-05-21T11:56:51.043Z,48.90
2018-05-21T11:59:18.580Z,52.10
2018-05-21T12:01:46.092Z,50.50
2018-05-21T12:04:13.677Z,49.20
2018-05-21T12:06:41.227Z,51.10
2018-05-21T12:09:08.761Z,50.00
2018-05-21T12:11:37.055Z,51.50
2018-05-21T12:14:04.592Z,51.40
2018-05-21T12:16:32.871Z,50.00
2018-05-21T12:19:01.176Z,50.80
2018-05-21T12:21:28.691Z,50.80
2018-05-21T12:23:56.992Z,50.10
2018-05-21T12:26:25.296Z,48.20
2018-05-21T12:31:27.477Z,49.90
2018-05-21T12:33:55.033Z,49.90
2018-05-21T12:36:22.555Z,52.40
2018-05-21T12:38:50.086Z,52.50
2018-05-21T12:41:17.629Z,50.70
2018-05-21T12:43:45.139Z,50.90
2018-05-21T12:46:12.679Z,48.60
2018-05-21T12:48:40.203Z,50.40
2018-05-21T12:51:07.740Z,49.10
2018-05-21T12:53:36.029Z,51.20
2018-05-21T12:56:03.572Z,51.00
2018-05-21T12:58:31.869Z,50.90
2018-05-21T13:00:59.409Z,51.00
2018-05-21T13:03:27.698Z,51.10
2018-05-21T13:05:56.001Z,51.20
2018-05-21T13:08:23.519Z,51.00
2018-05-21T13:10:51.823Z,52.30
2018-05-21T13:13:19.403Z,52.20
2018-05-21T13:15:46.939Z,50.80
2018-05-21T13:18:15.240Z,49.40
2018-05-21T13:20:42.788Z,49.40
2018-05-21T13:23:10.313Z,48.50
2018-05-21T13:25:37.848Z,47.60
2018-05-21T13:28:05.368Z,50.80
2018-05-21T13:30:32.909Z,50.70
2018-05-21T13:33:01.196Z,52.90
2018-05-21T13:35:28.731Z,52.90
2018-05-21T13:37:56.345Z,55.90
2018-05-21T13:40:23.881Z,52.00
2018-05-21T13:42:51.409Z,53.80
2018-05-21T13:45:20.462Z,50.00
2018-05-21T13:47:47.980Z,49.90
2018-05-21T13:50:16.296Z,48.50
2018-05-21T13:52:43.858Z,48.40
2018-05-21T13:55:11.385Z,50.40
2018-05-21T13:57:39.685Z,49.60
2018-05-21T14:00:07.208Z,49.60
2018-05-21T14:02:34.740Z,49.20
2018-05-21T14:05:02.256Z,50.70
2018-05-21T14:07:29.795Z,50.40
2018-05-21T14:09:58.081Z,50.30
2018-05-21T14:12:26.393Z,51.80
2018-05-21T14:14:54.212Z,51.70
2018-05-21T14:17:22.542Z,49.90
2018-05-21T14:19:50.080Z,49.90
2018-05-21T14:22:17.621Z,51.50
2018-05-21T14:24:45.900Z,50.30
2018-05-21T14:27:14.200Z,49.10
2018-05-21T14:29:41.717Z,49.10
2018-05-21T14:32:10.028Z,49.60
2018-05-21T14:34:38.312Z,50.70
2018-05-21T14:37:05.860Z,50.70
2018-05-21T14:39:34.145Z,50.20
2018-05-21T14:42:02.445Z,50.40
2018-05-21T14:44:30.007Z,50.40
2018-05-21T14:46:57.524Z,50.20
2018-05-21T14:49:25.847Z,50.90
2018-05-21T14:51:53.364Z,50.90
2018-05-21T14:54:21.664Z,47.00
2018-05-21T14:56:49.183Z,47.00
2018-05-21T14:59:16.905Z,49.20
2018-05-21T15:01:44.472Z,52.90
2018-05-21T15:04:12.008Z,51.30
2018-05-21T15:06:39.520Z,52.20
2018-05-21T15:09:07.073Z,49.00
2018-05-21T15:11:34.597Z,51.60
2018-05-21T15:14:02.129Z,49.80
2018-05-21T15:16:30.411Z,52.70
2018-05-21T15:18:58.715Z,50.60
2018-05-21T15:21:26.234Z,50.60
2018-05-21T15:23:53.772Z,47.50
2018-05-21T15:26:21.293Z,47.30
2018-05-21T15:28:48.845Z,50.30
2018-05-21T15:31:16.366Z,50.70
2018-05-21T15:33:45.397Z,49.60
2018-05-21T15:36:12.970Z,49.50
2018-05-21T15:38:41.232Z,51.40
2018-05-21T15:41:09.528Z,49.50
2018-05-21T15:43:37.093Z,49.60
2018-05-21T15:46:04.610Z,51.30
2018-05-21T15:48:32.997Z,52.10
2018-05-21T15:51:00.456Z,52.10
2018-05-21T15:53:28.737Z,51.40
2018-05-21T15:55:57.055Z,51.30
2018-05-21T15:58:24.616Z,51.30
2018-05-21T16:00:52.170Z,50.00
2018-05-21T16:03:19.689Z,52.50
2018-05-21T16:05:47.994Z,55.00
2018-05-21T16:08:15.511Z,55.00
2018-05-21T16:10:43.048Z,55.40
2018-05-21T16:13:10.566Z,53.10
2018-05-21T16:15:38.109Z,53.80
2018-05-21T16:18:06.429Z,49.60
2018-05-21T16:20:33.967Z,49.60
2018-05-21T16:23:01.489Z,48.60
2018-05-21T16:25:29.102Z,52.80
2018-05-21T16:27:56.668Z,52.90
2018-05-21T16:30:24.232Z,52.90
2018-05-21T16:32:51.768Z,54.80
2018-05-21T16:35:20.067Z,50.60
2018-05-21T16:37:47.603Z,50.50
2018-05-21T16:40:15.884Z,52.80
2018-05-21T16:42:43.424Z,52.80
2018-05-21T16:45:11.709Z,54.50
2018-05-21T16:47:40.068Z,54.10
2018-05-21T16:50:07.549Z,54.10
2018-05-21T16:52:35.857Z,53.70
2018-05-21T16:55:03.376Z,53.70
2018-05-21T16:57:31.680Z,54.00
2018-05-21T16:59:59.191Z,54.60
2018-05-21T17:02:26.728Z,54.80
2018-05-21T17:04:54.241Z,54.40
2018-05-21T17:07:22.567Z,55.80
2018-05-21T17:09:50.244Z,55.80
2018-05-21T17:12:17.777Z,55.80
2018-05-21T17:14:45.288Z,57.50
2018-05-21T17:17:12.827Z,55.70
2018-05-21T17:19:40.351Z,57.40
2018-05-21T17:22:07.868Z,57.40
2018-05-21T17:24:35.404Z,57.80
2018-05-21T17:27:02.933Z,56.20
2018-05-21T17:29:30.473Z,57.80
2018-05-21T17:31:58.752Z,55.10
2018-05-21T17:34:26.341Z,55.10
2018-05-21T17:36:53.855Z,55.20
2018-05-21T17:39:22.162Z,62.70
2018-05-21T17:41:49.736Z,62.70
2018-05-21T17:44:17.276Z,63.20
2018-05-21T17:46:44.792Z,61.10
2018-05-21T17:49:12.326Z,58.70
2018-05-21T17:51:39.885Z,58.80
2018-05-21T17:54:07.429Z,58.20
2018-05-21T17:56:34.946Z,59.30
2018-05-21T17:59:03.257Z,61.00
2018-05-21T18:01:30.777Z,60.80
2018-05-21T18:03:58.312Z,62.20
2018-05-21T18:06:25.828Z,64.30
2018-05-21T18:08:54.197Z,65.50
2018-05-21T18:11:21.660Z,65.50
2018-05-21T18:13:49.972Z,65.50
2018-05-21T18:16:17.492Z,65.40
2018-05-21T18:18:45.813Z,67.50
2018-05-21T18:21:13.325Z,67.50
2018-05-21T18:23:40.927Z,68.20
2018-05-21T18:26:08.465Z,69.40
2018-05-21T18:28:35.987Z,69.70
2018-05-21T18:31:03.525Z,69.50
2018-05-21T18:33:31.046Z,70.10
2018-05-21T18:35:58.638Z,70.90
2018-05-21T18:38:26.134Z,71.30
2018-05-21T18:40:53.676Z,71.80
2018-05-21T18:43:21.188Z,71.80
2018-05-21T18:45:48.768Z,72.30
2018-05-21T18:48:16.371Z,72.70
2018-05-21T18:50:43.853Z,73.30
2018-05-21T18:53:12.132Z,76.10
2018-05-21T18:55:40.436Z,77.00
2018-05-21T18:58:07.947Z,77.00
2018-05-21T19:00:35.480Z,78.50
2018-05-21T19:03:03.000Z,80.20
2018-05-21T19:05:31.317Z,83.10
2018-05-21T19:07:58.833Z,83.00
2018-05-21T19:10:27.120Z,84.90
2018-05-21T19:12:54.658Z,84.90
2018-05-21T19:15:22.939Z,86.30
2018-05-21T19:17:51.240Z,87.50
2018-05-21T19:20:18.757Z,87.50
2018-05-21T19:22:46.303Z,89.00
2018-05-21T19:25:13.820Z,90.30
2018-05-21T19:27:41.356Z,91.60
2018-05-21T19:30:09.653Z,93.70
2018-05-21T19:32:37.192Z,93.60
2018-05-21T19:35:05.564Z,95.80
2018-05-21T19:37:33.029Z,95.80
2018-05-21T19:40:01.312Z,98.30
2018-05-21T19:42:29.616Z,99.40
2018-05-21T19:44:57.135Z,99.40
2018-05-21T19:47:24.674Z,99.90
2018-05-21T19:49:52.192Z,99.90
2018-05-21T19:52:19.721Z,99.90
2018-05-21T19:54:48.024Z,99.90
2018-05-21T19:57:15.542Z,99.90
2018-05-21T19:59:43.081Z,99.90
2018-05-21T20:02:10.597Z,99.90
2018-05-21T20:04:38.904Z,99.90
2018-05-21T20:07:06.424Z,99.90
2018-05-21T20:09:34.728Z,99.90
2018-05-21T20:12:02.252Z,99.90
2018-05-21T20:14:29.792Z,99.90
2018-05-21T20:16:57.309Z,99.90
2018-05-21T20:19:24.891Z,99.90
2018-05-21T20:21:52.392Z,99.90
2018-05-21T20:24:19.928Z,99.90
2018-05-21T20:26:47.446Z,99.90
2018-05-21T20:29:14.980Z,99.90
2018-05-21T20:31:43.258Z,99.90
2018-05-21T20:34:11.557Z,99.90
2018-05-21T20:36:39.072Z,99.90
2018-05-21T20:39:06.605Z,99.90
2018-05-21T20:41:34.125Z,99.90
2018-05-21T20:44:01.672Z,99.90
2018-05-21T20:46:29.960Z,99.90
2018-05-21T20:48:58.239Z,99.90
2018-05-21T20:51:26.536Z,99.90
2018-05-21T20:53:54.060Z,99.90
2018-05-21T20:56:21.599Z,99.90
2018-05-21T20:58:49.118Z,99.90
2018-05-21T21:01:16.674Z,99.90
2018-05-21T21:03:44.199Z,99.90
2018-05-21T21:06:11.733Z,99.90
2018-05-21T21:08:39.243Z,99.90
2018-05-21T21:11:07.551Z,99.90
2018-05-21T21:13:35.069Z,99.90
2018-05-21T21:16:03.368Z,99.90
2018-05-21T21:18:30.888Z,99.90
2018-05-21T21:20:58.420Z,99.90
2018-05-21T21:23:25.985Z,99.90
2018-05-21T21:25:53.495Z,99.90
2018-05-21T21:28:21.777Z,99.90
2018-05-21T21:30:49.337Z,99.90
2018-05-21T21:33:17.620Z,99.90
2018-05-21T21:35:45.143Z,99.90
2018-05-21T21:38:12.685Z,99.90
2018-05-21T21:40:40.205Z,99.90
2018-05-21T21:43:07.741Z,99.90
2018-05-21T21:45:36.017Z,99.90
2018-05-21T21:48:04.316Z,99.90
2018-05-21T21:50:31.835Z,99.90
2018-05-21T21:52:59.372Z,99.90
2018-05-21T21:55:26.888Z,99.90
2018-05-21T21:57:55.188Z,99.90
2018-05-21T22:00:22.712Z,99.90
2018-05-21T22:02:51.009Z,99.90
2018-05-21T22:05:18.524Z,99.90
2018-05-21T22:07:46.058Z,99.90
2018-05-21T22:10:13.577Z,99.90
2018-05-21T22:12:41.875Z,99.90
2018-05-21T22:15:09.394Z,99.90
2018-05-21T22:17:36.932Z,99.90
2018-05-21T22:20:04.448Z,99.90
2018-05-21T22:22:31.983Z,99.90
2018-05-21T22:25:00.269Z,99.90
2018-05-21T22:27:28.584Z,99.90
2018-05-21T22:29:56.101Z,99.90
2018-05-21T22:32:24.383Z,99.90
2018-05-21T22:34:52.689Z,99.90
2018-05-21T22:37:20.209Z,99.90
2018-05-21T22:39:47.745Z,99.90
2018-05-21T22:42:15.266Z,99.90
2018-05-21T22:44:42.812Z,99.90
2018-05-21T22:47:10.332Z,99.90
2018-05-21T22:49:37.871Z,99.90
2018-05-21T22:52:05.383Z,99.90
2018-05-21T22:54:36.197Z,99.90
2018-05-21T22:57:03.715Z,99.90
2018-05-21T22:59:31.257Z,99.90
2018-05-21T23:01:58.770Z,99.90
2018-05-21T23:04:26.308Z,99.90
2018-05-21T23:06:54.584Z,99.90
2018-05-21T23:09:22.116Z,99.90
2018-05-21T23:11:49.633Z,99.90
2018-05-21T23:14:17.168Z,99.90
2018-05-21T23:16:44.681Z,99.90
2018-05-21T23:19:12.989Z,99.90
2018-05-21T23:21:40.512Z,99.90
2018-05-21T23:24:08.818Z,99.90
2018-05-21T23:26:36.332Z,99.90
2018-05-21T23:29:03.855Z,99.90
2018-05-21T23:31:31.392Z,99.90
2018-05-21T23:33:58.912Z,99.90
2018-05-21T23:36:26.447Z,99.90
2018-05-21T23:38:53.956Z,99.90
2018-05-21T23:41:22.255Z,99.90
2018-05-21T23:43:49.777Z,99.90
2018-05-21T23:46:17.312Z,99.90
2018-05-21T23:48:44.828Z,99.90
2018-05-21T23:51:12.365Z,99.90
2018-05-21T23:53:40.649Z,99.90
2018-05-21T23:56:08.956Z,99.90
2018-05-21T23:58:36.469Z,99.90
